Time;durP1;ratioP1;P1;durP2;ratioP2;P2;SDS_P1;SDS_P2;PMS_P1;PMS_P2;Temp;Humidity;BMP_temperature;BMP_pressure;BME280_temperature;BME280_humidity;BME280_pressure;Samples;Min_cycle;Max_cycle;Signal;HPM_P1;HPM_P2
2020/12/08 00:01:22;;;;;;;17.10;13.87;;;;;;;;;;4955214;28;20645;-76
2020/12/08 00:03:48;;;;;;;21.50;15.33;;;;;;;;;;4954099;29;20710;-76
2020/12/08 00:06:15;;;;;;;19.07;15.27;;;;;;;;;;4955187;29;20192;-76
2020/12/08 00:08:41;;;;;;;20.47;15.70;;;;;;;;;;4953843;28;20209;-76
2020/12/08 00:11:07;;;;;;;19.20;14.80;;;;;;;;;;4953754;28;20173;-75
2020/12/08 00:13:32;;;;;;;18.93;15.17;;;;;;;;;;4955073;28;20185;-75
2020/12/08 00:15:59;;;;;;;20.57;15.33;;;;;;;;;;4954744;28;20209;-76
2020/12/08 00:18:25;;;;;;;19.30;14.87;;;;;;;;;;4954803;28;20224;-76
2020/12/08 00:20:51;;;;;;;23.63;16.70;;;;;;;;;;4954967;29;20187;-76
2020/12/08 00:23:17;;;;;;;22.57;15.50;;;;;;;;;;4955086;28;20659;-76
2020/12/08 00:25:43;;;;;;;22.03;15.60;;;;;;;;;;4953998;29;20231;-76
2020/12/08 00:28:10;;;;;;;25.33;17.40;;;;;;;;;;4954978;28;20208;-76
2020/12/08 00:30:36;;;;;;;24.27;17.20;;;;;;;;;;4954942;28;20177;-75
2020/12/08 00:33:02;;;;;;;25.87;17.83;;;;;;;;;;4953537;29;20706;-75
2020/12/08 00:35:28;;;;;;;21.17;16.80;;;;;;;;;;4953685;29;20184;-75
2020/12/08 00:37:54;;;;;;;23.33;16.70;;;;;;;;;;4953537;28;20201;-75
2020/12/08 00:40:20;;;;;;;20.37;14.60;;;;;;;;;;4955130;29;20181;-75
2020/12/08 00:42:46;;;;;;;24.00;16.03;;;;;;;;;;4953850;28;20180;-77
2020/12/08 00:45:13;;;;;;;25.70;16.40;;;;;;;;;;4953949;29;20259;-76
2020/12/08 00:47:39;;;;;;;23.70;16.73;;;;;;;;;;4953502;28;20181;-76
2020/12/08 00:50:06;;;;;;;22.13;16.37;;;;;;;;;;4955011;28;20181;-75
2020/12/08 00:52:33;;;;;;;26.13;17.10;;;;;;;;;;4954637;28;20211;-76
2020/12/08 00:54:59;;;;;;;29.30;19.47;;;;;;;;;;4954979;28;20184;-76
2020/12/08 00:57:25;;;;;;;28.23;18.30;;;;;;;;;;4954826;28;20177;-75
2020/12/08 00:59:52;;;;;;;29.73;19.10;;;;;;;;;;4953117;29;20183;-76
2020/12/08 01:02:18;;;;;;;30.10;19.40;;;;;;;;;;4949095;28;20528;-77
2020/12/08 01:04:45;;;;;;;30.90;20.03;;;;;;;;;;4949444;29;20674;-77
2020/12/08 01:07:12;;;;;;;31.73;19.80;;;;;;;;;;4954376;28;20538;-76
2020/12/08 01:09:39;;;;;;;30.00;18.67;;;;;;;;;;4954143;28;20201;-76
2020/12/08 01:12:06;;;;;;;30.00;18.77;;;;;;;;;;4954425;28;20545;-76
2020/12/08 01:14:33;;;;;;;30.67;18.93;;;;;;;;;;4954798;28;20268;-75
2020/12/08 01:17:00;;;;;;;30.43;18.80;;;;;;;;;;4954799;28;20228;-75
2020/12/08 01:19:27;;;;;;;31.70;19.27;;;;;;;;;;4954370;28;20225;-75
2020/12/08 01:21:53;;;;;;;34.70;20.53;;;;;;;;;;4954333;28;20178;-75
2020/12/08 01:24:20;;;;;;;29.90;19.37;;;;;;;;;;4954496;28;20189;-75
2020/12/08 01:26:46;;;;;;;27.70;17.97;;;;;;;;;;4954837;28;20177;-76
2020/12/08 01:29:12;;;;;;;31.00;19.10;;;;;;;;;;4957408;28;20671;-75
2020/12/08 01:31:39;;;;;;;30.93;19.10;;;;;;;;;;4957695;28;20201;-76
2020/12/08 01:34:05;;;;;;;29.13;18.47;;;;;;;;;;4958140;28;20169;-75
2020/12/08 01:36:32;;;;;;;29.70;18.90;;;;;;;;;;4959954;29;20247;-75
2020/12/08 01:38:58;;;;;;;27.60;17.97;;;;;;;;;;4960268;28;20705;-76
2020/12/08 01:41:24;;;;;;;29.60;18.40;;;;;;;;;;4961224;28;20256;-75
2020/12/08 01:43:51;;;;;;;30.50;19.03;;;;;;;;;;4956731;29;20272;-76
2020/12/08 01:46:18;;;;;;;30.77;19.27;;;;;;;;;;4956353;29;20181;-75
2020/12/08 01:48:45;;;;;;;27.77;18.60;;;;;;;;;;4957749;28;20212;-76
2020/12/08 01:51:11;;;;;;;29.83;18.83;;;;;;;;;;4956183;29;20224;-75
2020/12/08 01:53:37;;;;;;;31.07;19.27;;;;;;;;;;4957694;29;20533;-76
2020/12/08 01:56:04;;;;;;;29.37;18.97;;;;;;;;;;4957592;29;20177;-76
2020/12/08 01:58:30;;;;;;;30.77;19.47;;;;;;;;;;4957236;28;20248;-76
2020/12/08 02:00:56;;;;;;;35.47;20.80;;;;;;;;;;4957165;28;20561;-76
2020/12/08 02:03:22;;;;;;;31.07;20.13;;;;;;;;;;4957518;28;20185;-76
2020/12/08 02:05:48;;;;;;;34.80;20.27;;;;;;;;;;4957320;29;20185;-76
2020/12/08 02:08:14;;;;;;;34.77;20.33;;;;;;;;;;4957466;28;20201;-76
2020/12/08 02:10:40;;;;;;;31.87;19.43;;;;;;;;;;4955957;29;20556;-76
2020/12/08 02:13:10;;;;;;;33.03;20.40;;;;;;;;;;4956978;29;20200;-76
2020/12/08 02:15:36;;;;;;;31.63;19.43;;;;;;;;;;4955752;29;20189;-76
2020/12/08 02:18:02;;;;;;;30.77;19.47;;;;;;;;;;4956814;28;20217;-76
2020/12/08 02:20:28;;;;;;;30.40;19.07;;;;;;;;;;4955815;29;20667;-75
2020/12/08 02:22:57;;;;;;;30.73;19.50;;;;;;;;;;4957020;29;20663;-76
2020/12/08 02:25:24;;;;;;;31.03;19.33;;;;;;;;;;4956666;28;20181;-77
2020/12/08 02:27:50;;;;;;;29.93;18.53;;;;;;;;;;4956254;28;20288;-75
2020/12/08 02:30:16;;;;;;;31.73;19.87;;;;;;;;;;4955489;29;20599;-76
2020/12/08 02:32:42;;;;;;;31.80;19.60;;;;;;;;;;4956992;28;20205;-76
2020/12/08 02:35:09;;;;;;;32.23;19.53;;;;;;;;;;4956748;28;20173;-76
2020/12/08 02:37:35;;;;;;;28.70;19.30;;;;;;;;;;4956998;28;20264;-75
2020/12/08 02:40:03;;;;;;;32.27;20.10;;;;;;;;;;4956239;28;20213;-76
2020/12/08 02:42:29;;;;;;;28.67;18.87;;;;;;;;;;4956931;29;20189;-75
2020/12/08 02:44:55;;;;;;;30.80;19.10;;;;;;;;;;4956602;28;20550;-76
2020/12/08 02:47:22;;;;;;;31.37;18.97;;;;;;;;;;4956508;28;20619;-75
2020/12/08 02:49:48;;;;;;;29.27;18.77;;;;;;;;;;4956478;28;20213;-76
2020/12/08 02:52:14;;;;;;;30.17;18.73;;;;;;;;;;4956646;28;20224;-76
2020/12/08 02:54:40;;;;;;;29.77;18.67;;;;;;;;;;4953144;28;20202;-75
2020/12/08 02:57:07;;;;;;;31.47;19.43;;;;;;;;;;4952197;28;20169;-76
2020/12/08 02:59:34;;;;;;;28.63;18.87;;;;;;;;;;4955944;28;20209;-77
2020/12/08 03:02:00;;;;;;;31.80;18.70;;;;;;;;;;4952734;29;20178;-77
2020/12/08 03:04:26;;;;;;;32.60;19.80;;;;;;;;;;4954431;28;20184;-76
2020/12/08 03:06:52;;;;;;;33.97;20.00;;;;;;;;;;4953292;29;20660;-77
2020/12/08 03:09:18;;;;;;;30.53;18.93;;;;;;;;;;4952214;28;20207;-77
2020/12/08 03:11:45;;;;;;;28.37;18.97;;;;;;;;;;4953337;28;20196;-76
2020/12/08 03:14:11;;;;;;;31.93;19.83;;;;;;;;;;4953817;29;20181;-76
2020/12/08 03:16:37;;;;;;;32.90;20.43;;;;;;;;;;4955257;28;20539;-76
2020/12/08 03:19:03;;;;;;;33.33;20.33;;;;;;;;;;4955025;28;20695;-76
2020/12/08 03:21:36;;;;;;;29.43;18.87;;;;;;;;;;4955242;28;20183;-76
2020/12/08 03:24:02;;;;;;;30.60;19.47;;;;;;;;;;4955884;29;20212;-76
2020/12/08 03:26:28;;;;;;;32.40;20.23;;;;;;;;;;4955949;28;20263;-76
2020/12/08 03:28:54;;;;;;;34.77;20.10;;;;;;;;;;4954574;28;20253;-76
2020/12/08 03:31:21;;;;;;;30.70;18.87;;;;;;;;;;4955805;29;20192;-76
2020/12/08 03:33:47;;;;;;;32.27;19.17;;;;;;;;;;4955854;29;20185;-75
2020/12/08 03:36:14;;;;;;;31.20;19.30;;;;;;;;;;4955966;28;20184;-76
2020/12/08 03:38:42;;;;;;;33.30;19.97;;;;;;;;;;4954330;28;20193;-76
2020/12/08 03:41:08;;;;;;;35.00;20.53;;;;;;;;;;4955714;28;20173;-76
2020/12/08 03:43:34;;;;;;;32.43;20.20;;;;;;;;;;4954252;29;20185;-76
2020/12/08 03:46:01;;;;;;;31.17;20.60;;;;;;;;;;4955525;28;20181;-76
2020/12/08 03:48:27;;;;;;;35.30;20.63;;;;;;;;;;4954123;28;20621;-76
2020/12/08 03:50:53;;;;;;;31.87;18.90;;;;;;;;;;4955225;28;20173;-75
2020/12/08 03:53:19;;;;;;;34.80;20.60;;;;;;;;;;4955523;28;20599;-76
2020/12/08 03:55:45;;;;;;;33.90;20.70;;;;;;;;;;4941822;29;20165;-76
2020/12/08 03:58:11;;;;;;;32.10;19.20;;;;;;;;;;4954856;28;20275;-77
2020/12/08 04:00:37;;;;;;;34.13;20.80;;;;;;;;;;4953887;29;20197;-76
2020/12/08 04:03:04;;;;;;;34.73;21.13;;;;;;;;;;4955496;28;20192;-76
2020/12/08 04:05:30;;;;;;;36.47;21.63;;;;;;;;;;4955228;28;20550;-76
2020/12/08 04:07:56;;;;;;;35.20;20.87;;;;;;;;;;4955333;28;20201;-76
2020/12/08 04:10:23;;;;;;;37.77;21.13;;;;;;;;;;4955469;28;20598;-76
2020/12/08 04:12:49;;;;;;;37.60;20.77;;;;;;;;;;4953797;29;20675;-76
2020/12/08 04:15:15;;;;;;;38.67;21.73;;;;;;;;;;4954542;29;20228;-77
2020/12/08 04:17:41;;;;;;;38.37;21.07;;;;;;;;;;4954629;28;20189;-76
2020/12/08 04:20:07;;;;;;;33.30;19.47;;;;;;;;;;4991418;23;20227;-77
2020/12/08 04:22:34;;;;;;;35.70;20.70;;;;;;;;;;4973453;28;20180;-76
2020/12/08 04:25:00;;;;;;;35.87;21.33;;;;;;;;;;4974729;28;20184;-76
2020/12/08 04:27:26;;;;;;;39.20;22.10;;;;;;;;;;4975105;28;20187;-78
2020/12/08 04:29:52;;;;;;;33.97;20.53;;;;;;;;;;4944632;29;20216;-77
2020/12/08 04:32:18;;;;;;;36.57;21.03;;;;;;;;;;4956046;29;20209;-77
2020/12/08 04:34:45;;;;;;;39.13;21.23;;;;;;;;;;4955293;28;20555;-76
2020/12/08 04:37:12;;;;;;;38.63;21.53;;;;;;;;;;4955859;28;20176;-77
2020/12/08 04:39:38;;;;;;;37.20;21.60;;;;;;;;;;4955341;28;20234;-77
2020/12/08 04:42:04;;;;;;;35.83;19.87;;;;;;;;;;4955822;29;20192;-77
2020/12/08 04:44:31;;;;;;;37.33;20.97;;;;;;;;;;4955256;28;20185;-77
2020/12/08 04:46:57;;;;;;;42.23;22.37;;;;;;;;;;4955208;28;20185;-77
2020/12/08 04:49:25;;;;;;;34.63;19.77;;;;;;;;;;4955654;28;20718;-77
2020/12/08 04:51:51;;;;;;;36.60;21.27;;;;;;;;;;4956001;28;20228;-77
2020/12/08 04:54:17;;;;;;;38.13;21.17;;;;;;;;;;4956377;28;20180;-77
2020/12/08 04:56:44;;;;;;;39.00;21.70;;;;;;;;;;4954572;29;20181;-77
2020/12/08 04:59:18;;;;;;;45.10;23.50;;;;;;;;;;4952783;28;20232;-77
2020/12/08 05:01:45;;;;;;;37.30;20.90;;;;;;;;;;4952427;28;20192;-77
2020/12/08 05:04:11;;;;;;;37.97;20.93;;;;;;;;;;4958862;29;20181;-77
2020/12/08 05:06:37;;;;;;;38.33;21.23;;;;;;;;;;4957570;28;20281;-77
2020/12/08 05:09:05;;;;;;;41.00;21.90;;;;;;;;;;4958808;28;20313;-77
2020/12/08 05:11:31;;;;;;;45.27;23.27;;;;;;;;;;4958600;28;20201;-77
2020/12/08 05:14:04;;;;;;;38.33;20.73;;;;;;;;;;4957771;28;20221;-77
2020/12/08 05:16:30;;;;;;;36.73;21.43;;;;;;;;;;4957905;28;20196;-77
2020/12/08 05:19:09;;;;;;;38.83;21.10;;;;;;;;;;4959201;28;20213;-77
2020/12/08 05:21:46;;;;;;;42.13;21.67;;;;;;;;;;4943686;28;20189;-77
2020/12/08 05:24:21;;;;;;;35.80;19.77;;;;;;;;;;4941167;29;20196;-77
2020/12/08 05:26:52;;;;;;;35.93;19.73;;;;;;;;;;4942564;28;20282;-77
2020/12/08 05:29:21;;;;;;;41.43;21.77;;;;;;;;;;4939816;29;20217;-77
2020/12/08 05:31:49;;;;;;;41.37;22.67;;;;;;;;;;4942423;29;20544;-76
2020/12/08 05:34:17;;;;;;;35.60;21.00;;;;;;;;;;4957491;28;20262;-77
2020/12/08 05:36:47;;;;;;;37.70;20.67;;;;;;;;;;4957314;28;20173;-76
2020/12/08 05:39:16;;;;;;;37.53;21.13;;;;;;;;;;4957365;28;20193;-77
2020/12/08 05:41:44;;;;;;;39.47;21.73;;;;;;;;;;4952815;28;20190;-77
2020/12/08 05:44:15;;;;;;;38.87;22.03;;;;;;;;;;4939258;29;20189;-77
2020/12/08 05:46:43;;;;;;;38.33;20.60;;;;;;;;;;4953119;29;20228;-77
2020/12/08 05:49:13;;;;;;;46.63;23.83;;;;;;;;;;4956830;28;20197;-77
2020/12/08 05:51:40;;;;;;;46.17;23.23;;;;;;;;;;4956393;28;20300;-76
2020/12/08 05:54:06;;;;;;;45.23;23.37;;;;;;;;;;4961118;28;20177;-79
2020/12/08 05:56:39;;;;;;;50.07;24.63;;;;;;;;;;4966997;28;20192;-79
2020/12/08 05:59:05;;;;;;;45.60;23.70;;;;;;;;;;4966612;28;20197;-79
2020/12/08 06:01:31;;;;;;;47.57;23.80;;;;;;;;;;4966811;28;20165;-78
2020/12/08 06:03:58;;;;;;;42.90;22.30;;;;;;;;;;4965032;28;20220;-79
2020/12/08 06:06:24;;;;;;;43.10;22.50;;;;;;;;;;4968266;28;20644;-79
2020/12/08 06:08:53;;;;;;;41.67;22.43;;;;;;;;;;4969863;28;20238;-79
2020/12/08 06:11:28;;;;;;;38.83;22.13;;;;;;;;;;4967685;28;20173;-80
2020/12/08 06:14:08;;;;;;;41.40;21.53;;;;;;;;;;4966942;28;20189;-80
2020/12/08 06:16:37;;;;;;;36.87;20.83;;;;;;;;;;4967804;28;20181;-79
2020/12/08 06:19:04;;;;;;;38.40;21.10;;;;;;;;;;4970505;28;20220;-79
2020/12/08 06:21:30;;;;;;;43.83;23.43;;;;;;;;;;4972812;28;20207;-80
2020/12/08 06:24:00;;;;;;;38.47;22.00;;;;;;;;;;4972808;28;20192;-80
2020/12/08 06:26:27;;;;;;;41.37;21.80;;;;;;;;;;4971257;28;20180;-80
2020/12/08 06:28:54;;;;;;;43.77;23.13;;;;;;;;;;4972622;28;20237;-80
2020/12/08 06:31:21;;;;;;;44.30;23.50;;;;;;;;;;4972266;28;20188;-80
2020/12/08 06:33:55;;;;;;;42.67;23.27;;;;;;;;;;4969628;28;20243;-80
2020/12/08 06:36:22;;;;;;;43.50;23.17;;;;;;;;;;4970428;28;20185;-80
2020/12/08 06:38:57;;;;;;;47.47;24.47;;;;;;;;;;4966623;28;20194;-80
2020/12/08 06:41:31;;;;;;;45.37;23.03;;;;;;;;;;4963196;28;20173;-79
2020/12/08 06:44:01;;;;;;;45.40;22.77;;;;;;;;;;4965286;28;20177;-80
2020/12/08 06:46:28;;;;;;;47.90;24.07;;;;;;;;;;4967170;28;20200;-80
2020/12/08 06:49:00;;;;;;;47.63;24.57;;;;;;;;;;4969696;28;20685;-80
2020/12/08 06:51:26;;;;;;;51.77;24.57;;;;;;;;;;4965704;28;20193;-80
2020/12/08 06:53:52;;;;;;;44.70;23.47;;;;;;;;;;4967535;28;20177;-80
2020/12/08 06:56:29;;;;;;;46.43;23.90;;;;;;;;;;4965456;28;20209;-80
2020/12/08 06:58:55;;;;;;;46.90;24.03;;;;;;;;;;4964586;28;20228;-80
2020/12/08 07:01:22;;;;;;;48.47;24.90;;;;;;;;;;4963504;28;20181;-80
2020/12/08 07:03:50;;;;;;;47.73;24.03;;;;;;;;;;4963633;28;20181;-79
2020/12/08 07:06:16;;;;;;;46.60;23.87;;;;;;;;;;4965099;28;20188;-79
2020/12/08 07:08:46;;;;;;;47.90;24.40;;;;;;;;;;4965634;28;20204;-79
2020/12/08 07:11:20;;;;;;;41.97;23.37;;;;;;;;;;4965727;28;20531;-79
2020/12/08 07:13:59;;;;;;;48.73;24.77;;;;;;;;;;4964129;28;20244;-79
2020/12/08 07:16:25;;;;;;;41.97;23.30;;;;;;;;;;4959652;29;20554;-79
2020/12/08 07:18:53;;;;;;;50.10;24.87;;;;;;;;;;4964119;28;20628;-79
2020/12/08 07:21:20;;;;;;;42.73;22.33;;;;;;;;;;4961550;28;20244;-80
2020/12/08 07:23:46;;;;;;;43.53;22.67;;;;;;;;;;4962928;28;20177;-79
2020/12/08 07:26:16;;;;;;;45.60;23.33;;;;;;;;;;4962505;28;20207;-79
2020/12/08 07:28:42;;;;;;;46.60;23.73;;;;;;;;;;4961041;29;20295;-79
2020/12/08 07:31:19;;;;;;;47.67;23.63;;;;;;;;;;4963052;28;20189;-79
2020/12/08 07:33:58;;;;;;;47.90;24.43;;;;;;;;;;4962187;28;20197;-79
2020/12/08 07:36:29;;;;;;;46.47;23.50;;;;;;;;;;4963814;28;20183;-79
2020/12/08 07:38:56;;;;;;;48.60;23.67;;;;;;;;;;4963485;28;20215;-79
2020/12/08 07:41:24;;;;;;;48.00;24.40;;;;;;;;;;4963668;28;20590;-79
2020/12/08 07:44:00;;;;;;;;;;;;;;;;;;;;;
2020/12/08 07:46:28;;;;;;;49.07;25.47;;;;;;;;;;4962067;29;20607;-79
2020/12/08 07:49:05;;;;;;;46.63;24.30;;;;;;;;;;4961737;28;20212;-81
2020/12/08 07:51:32;;;;;;;46.73;23.67;;;;;;;;;;4963443;28;20216;-79
2020/12/08 07:53:59;;;;;;;46.97;23.97;;;;;;;;;;4962440;28;20181;-79
2020/12/08 07:56:29;;;;;;;47.57;24.77;;;;;;;;;;4962127;28;20723;-79
2020/12/08 07:58:56;;;;;;;48.60;25.00;;;;;;;;;;4961537;28;20200;-79
2020/12/08 08:01:23;;;;;;;50.97;26.97;;;;;;;;;;4962331;28;20212;-79
2020/12/08 08:03:49;;;;;;;46.83;24.47;;;;;;;;;;4961201;28;20606;-80
2020/12/08 08:06:19;;;;;;;46.83;24.47;;;;;;;;;;4959522;28;20177;-80
2020/12/08 08:08:46;;;;;;;50.30;24.27;;;;;;;;;;4960681;28;20208;-79
2020/12/08 08:11:12;;;;;;;45.97;24.13;;;;;;;;;;4961425;28;20173;-80
2020/12/08 08:13:38;;;;;;;46.37;25.00;;;;;;;;;;4960006;28;20201;-79
2020/12/08 08:16:04;;;;;;;43.63;22.77;;;;;;;;;;4962002;28;20185;-78
2020/12/08 08:18:31;;;;;;;46.60;24.60;;;;;;;;;;4961231;28;20264;-79
2020/12/08 08:20:58;;;;;;;45.03;23.73;;;;;;;;;;4958528;28;20192;-79
2020/12/08 08:23:29;;;;;;;44.57;23.77;;;;;;;;;;4961917;28;20189;-79
2020/12/08 08:25:55;;;;;;;47.27;24.93;;;;;;;;;;4960973;28;20184;-79
2020/12/08 08:28:21;;;;;;;48.67;24.53;;;;;;;;;;4961655;28;20192;-79
2020/12/08 08:30:47;;;;;;;48.27;24.40;;;;;;;;;;4962021;28;20239;-80
2020/12/08 08:33:14;;;;;;;47.40;24.07;;;;;;;;;;4962425;28;20205;-79
2020/12/08 08:35:40;;;;;;;50.20;25.13;;;;;;;;;;4961739;28;20185;-80
2020/12/08 08:38:07;;;;;;;44.93;23.93;;;;;;;;;;4966004;28;20189;-79
2020/12/08 08:40:33;;;;;;;47.33;24.07;;;;;;;;;;4965647;28;20197;-80
2020/12/08 08:42:59;;;;;;;48.67;24.50;;;;;;;;;;4965187;28;20208;-80
2020/12/08 08:45:26;;;;;;;48.53;24.37;;;;;;;;;;4965988;28;20183;-80
2020/12/08 08:47:52;;;;;;;49.20;24.93;;;;;;;;;;4964126;28;20203;-80
2020/12/08 08:50:18;;;;;;;49.60;25.20;;;;;;;;;;4967556;28;20205;-80
2020/12/08 08:52:44;;;;;;;46.33;24.30;;;;;;;;;;4967445;28;20236;-80
2020/12/08 08:55:11;;;;;;;49.27;25.07;;;;;;;;;;4967215;28;20648;-81
2020/12/08 08:57:38;;;;;;;48.17;24.30;;;;;;;;;;4964462;28;20557;-80
2020/12/08 09:00:05;;;;;;;49.00;26.17;;;;;;;;;;4966721;28;20223;-80
2020/12/08 09:02:32;;;;;;;47.57;24.40;;;;;;;;;;4967421;28;20200;-81
2020/12/08 09:04:58;;;;;;;45.23;24.17;;;;;;;;;;4967418;28;20682;-80
2020/12/08 09:07:26;;;;;;;46.80;24.93;;;;;;;;;;4967036;28;20189;-80
2020/12/08 09:09:52;;;;;;;49.77;24.80;;;;;;;;;;4964885;28;20224;-80
2020/12/08 09:12:18;;;;;;;49.87;25.20;;;;;;;;;;4964943;28;20211;-79
2020/12/08 09:14:45;;;;;;;52.03;24.90;;;;;;;;;;4966617;28;20177;-80
2020/12/08 09:17:11;;;;;;;49.40;24.93;;;;;;;;;;4966601;28;20201;-80
2020/12/08 09:19:38;;;;;;;49.50;25.67;;;;;;;;;;4966536;28;20223;-80
2020/12/08 09:22:06;;;;;;;49.57;26.40;;;;;;;;;;4966650;28;20264;-80
2020/12/08 09:24:32;;;;;;;45.83;25.30;;;;;;;;;;4965634;28;20173;-79
2020/12/08 09:27:09;;;;;;;;;;;;;;;;;;;;;
2020/12/08 09:29:36;;;;;;;45.63;24.80;;;;;;;;;;4964480;29;20267;-80
2020/12/08 09:32:03;;;;;;;43.90;23.50;;;;;;;;;;4965092;28;20200;-80
2020/12/08 09:34:29;;;;;;;51.47;26.80;;;;;;;;;;4965043;28;20177;-80
2020/12/08 09:36:56;;;;;;;38.53;21.57;;;;;;;;;;4964314;28;20177;-80
2020/12/08 09:39:26;;;;;;;39.13;22.37;;;;;;;;;;4965370;28;20670;-80
2020/12/08 09:41:54;;;;;;;37.07;22.30;;;;;;;;;;4964604;28;20177;-80
2020/12/08 09:44:21;;;;;;;39.90;22.23;;;;;;;;;;4964507;28;20181;-80
2020/12/08 09:46:47;;;;;;;51.57;27.07;;;;;;;;;;4963739;28;20181;-80
2020/12/08 09:49:14;;;;;;;39.17;21.43;;;;;;;;;;4962303;28;20193;-80
2020/12/08 09:51:40;;;;;;;43.80;22.90;;;;;;;;;;4964701;28;20255;-80
2020/12/08 09:54:07;;;;;;;62.13;29.37;;;;;;;;;;4963453;28;20224;-80
2020/12/08 09:56:33;;;;;;;37.63;21.77;;;;;;;;;;4964448;28;20180;-80
2020/12/08 09:59:00;;;;;;;43.43;23.90;;;;;;;;;;4964616;28;20722;-80
2020/12/08 10:01:28;;;;;;;41.00;22.23;;;;;;;;;;4960556;28;20185;-80
2020/12/08 10:03:55;;;;;;;37.63;22.07;;;;;;;;;;4963185;28;20562;-80
2020/12/08 10:06:22;;;;;;;37.00;21.23;;;;;;;;;;4961194;29;20185;-79
2020/12/08 10:08:49;;;;;;;36.37;22.00;;;;;;;;;;4962170;28;20244;-79
2020/12/08 10:11:15;;;;;;;36.73;21.17;;;;;;;;;;4962103;28;20177;-80
2020/12/08 10:13:42;;;;;;;36.63;21.67;;;;;;;;;;4962733;28;20703;-80
2020/12/08 10:16:09;;;;;;;39.17;22.53;;;;;;;;;;4963047;28;20173;-80
2020/12/08 10:18:36;;;;;;;36.33;22.63;;;;;;;;;;4966683;28;20254;-80
2020/12/08 10:21:02;;;;;;;34.67;21.07;;;;;;;;;;4993075;23;20230;-79
2020/12/08 10:23:28;;;;;;;33.80;21.83;;;;;;;;;;4976230;28;20191;-79
2020/12/08 10:25:55;;;;;;;35.03;21.23;;;;;;;;;;4977926;28;20186;-79
2020/12/08 10:28:22;;;;;;;33.03;19.47;;;;;;;;;;4976801;28;20184;-79
2020/12/08 10:30:49;;;;;;;30.83;19.20;;;;;;;;;;4965962;28;20296;-80
2020/12/08 10:33:15;;;;;;;30.97;19.17;;;;;;;;;;4956490;29;20571;-79
2020/12/08 10:35:42;;;;;;;33.20;19.97;;;;;;;;;;4957576;28;20521;-80
2020/12/08 10:38:11;;;;;;;30.73;19.10;;;;;;;;;;4957462;28;20273;-78
2020/12/08 10:40:37;;;;;;;29.80;19.47;;;;;;;;;;4957471;28;20197;-79
2020/12/08 10:43:03;;;;;;;31.00;18.73;;;;;;;;;;4957198;29;20208;-79
2020/12/08 10:45:30;;;;;;;28.17;17.87;;;;;;;;;;4957836;28;20638;-79
2020/12/08 10:47:56;;;;;;;32.73;20.03;;;;;;;;;;4957176;29;20177;-79
2020/12/08 10:50:22;;;;;;;32.27;19.30;;;;;;;;;;4955896;28;20193;-79
2020/12/08 10:52:49;;;;;;;30.17;18.77;;;;;;;;;;4955911;29;20209;-79
2020/12/08 10:55:17;;;;;;;32.13;18.67;;;;;;;;;;4957470;28;20174;-79
2020/12/08 10:57:43;;;;;;;76.67;30.37;;;;;;;;;;4956880;28;20630;-79
2020/12/08 11:00:10;;;;;;;30.80;18.57;;;;;;;;;;4955536;28;20228;-79
2020/12/08 11:02:36;;;;;;;30.10;18.43;;;;;;;;;;4955862;29;20181;-79
2020/12/08 11:05:07;;;;;;;32.10;19.87;;;;;;;;;;4956698;28;20547;-79
2020/12/08 11:07:33;;;;;;;30.17;18.90;;;;;;;;;;4956787;28;20185;-78
2020/12/08 11:10:00;;;;;;;27.33;17.97;;;;;;;;;;4956707;28;20229;-79
2020/12/08 11:12:27;;;;;;;31.03;19.43;;;;;;;;;;4956939;28;20313;-79
2020/12/08 11:14:53;;;;;;;33.97;21.37;;;;;;;;;;4955200;29;20174;-79
2020/12/08 11:17:19;;;;;;;40.47;22.40;;;;;;;;;;4956796;28;20180;-79
2020/12/08 11:19:46;;;;;;;35.33;21.37;;;;;;;;;;4955374;28;20275;-79
2020/12/08 11:22:12;;;;;;;34.70;21.83;;;;;;;;;;4956835;28;20196;-79
2020/12/08 11:24:39;;;;;;;35.43;22.17;;;;;;;;;;4956680;28;20698;-79
2020/12/08 11:27:06;;;;;;;39.00;23.57;;;;;;;;;;4955467;29;20283;-79
2020/12/08 11:29:31;;;;;;;34.77;22.30;;;;;;;;;;4956181;28;20185;-79
2020/12/08 11:31:58;;;;;;;39.67;22.97;;;;;;;;;;4956658;28;20211;-79
2020/12/08 11:34:24;;;;;;;38.23;22.10;;;;;;;;;;4955082;29;20178;-79
2020/12/08 11:36:54;;;;;;;38.27;22.70;;;;;;;;;;4955116;29;20223;-79
2020/12/08 11:39:20;;;;;;;39.50;23.07;;;;;;;;;;4956548;29;20178;-80
2020/12/08 11:41:46;;;;;;;38.83;22.63;;;;;;;;;;4959279;28;20200;-79
2020/12/08 11:44:12;;;;;;;56.13;27.77;;;;;;;;;;4938416;29;20182;-81
2020/12/08 11:46:39;;;;;;;41.37;23.53;;;;;;;;;;4949015;29;20188;-81
2020/12/08 11:49:08;;;;;;;38.97;22.20;;;;;;;;;;4957141;29;20180;-81
2020/12/08 11:51:34;;;;;;;43.17;24.07;;;;;;;;;;4957173;28;20275;-80
2020/12/08 11:54:00;;;;;;;40.37;23.07;;;;;;;;;;4955984;29;20189;-80
2020/12/08 11:56:27;;;;;;;41.17;23.40;;;;;;;;;;4957279;28;20625;-80
2020/12/08 11:58:53;;;;;;;69.73;30.83;;;;;;;;;;4955769;29;20648;-79
2020/12/08 12:01:19;;;;;;;445.37;133.43;;;;;;;;;;4955587;28;20203;-79
2020/12/08 12:03:46;;;;;;;192.33;63.10;;;;;;;;;;4956895;29;20185;-80
2020/12/08 12:06:13;;;;;;;513.87;165.93;;;;;;;;;;4957271;28;20181;-80
2020/12/08 12:08:42;;;;;;;176.90;60.63;;;;;;;;;;4955398;29;20243;-80
2020/12/08 12:11:08;;;;;;;55.37;28.43;;;;;;;;;;4955072;28;20205;-80
2020/12/08 12:13:35;;;;;;;36.00;23.37;;;;;;;;;;4956254;28;20213;-80
2020/12/08 12:16:01;;;;;;;40.63;24.00;;;;;;;;;;4956756;28;20204;-79
2020/12/08 12:18:27;;;;;;;56.97;29.53;;;;;;;;;;4956995;28;20211;-80
2020/12/08 12:20:53;;;;;;;105.47;45.13;;;;;;;;;;4956897;28;20683;-79
2020/12/08 12:23:19;;;;;;;61.47;31.73;;;;;;;;;;4957257;29;20217;-81
2020/12/08 12:25:46;;;;;;;63.37;32.67;;;;;;;;;;4957556;28;20209;-80
2020/12/08 12:28:12;;;;;;;79.90;38.70;;;;;;;;;;4955835;29;20187;-79
2020/12/08 12:30:38;;;;;;;38.77;24.93;;;;;;;;;;4956152;28;20239;-80
2020/12/08 12:33:05;;;;;;;38.30;23.73;;;;;;;;;;4957288;29;20643;-81
2020/12/08 12:35:31;;;;;;;39.33;23.20;;;;;;;;;;4957069;29;20187;-80
2020/12/08 12:37:57;;;;;;;45.93;25.87;;;;;;;;;;4955843;29;20180;-80
2020/12/08 12:40:23;;;;;;;37.20;21.83;;;;;;;;;;4957600;28;20197;-80
2020/12/08 12:42:49;;;;;;;35.13;21.13;;;;;;;;;;4957476;29;20544;-79
2020/12/08 12:45:15;;;;;;;46.17;25.50;;;;;;;;;;4957154;29;20188;-80
2020/12/08 12:47:41;;;;;;;33.10;20.30;;;;;;;;;;4957349;28;20181;-79
2020/12/08 12:50:07;;;;;;;33.33;22.20;;;;;;;;;;4956757;28;20205;-79
2020/12/08 12:52:33;;;;;;;33.83;21.60;;;;;;;;;;4956644;28;20205;-80
2020/12/08 12:54:59;;;;;;;35.47;20.83;;;;;;;;;;4957208;28;20237;-80
2020/12/08 12:57:26;;;;;;;46.20;26.43;;;;;;;;;;4957544;28;20184;-80
2020/12/08 12:59:52;;;;;;;37.97;23.47;;;;;;;;;;4956279;28;20212;-80
2020/12/08 13:02:18;;;;;;;33.03;20.63;;;;;;;;;;4957925;28;20186;-81
2020/12/08 13:04:44;;;;;;;34.93;21.57;;;;;;;;;;4957598;28;20212;-79
2020/12/08 13:07:15;;;;;;;32.87;20.57;;;;;;;;;;4957816;29;20189;-79
2020/12/08 13:09:41;;;;;;;34.00;21.20;;;;;;;;;;4957526;28;20185;-80
2020/12/08 13:12:07;;;;;;;34.63;21.23;;;;;;;;;;4954769;29;20208;-80
2020/12/08 13:14:33;;;;;;;28.40;19.80;;;;;;;;;;4956152;28;20230;-80
2020/12/08 13:17:00;;;;;;;31.90;20.00;;;;;;;;;;4955791;28;20186;-80
2020/12/08 13:19:26;;;;;;;33.47;20.00;;;;;;;;;;4954842;29;20181;-79
2020/12/08 13:21:53;;;;;;;31.33;19.40;;;;;;;;;;4954215;28;20224;-79
2020/12/08 13:24:19;;;;;;;29.17;19.40;;;;;;;;;;4957787;28;20208;-80
2020/12/08 13:26:45;;;;;;;31.50;20.47;;;;;;;;;;4959493;28;20180;-79
2020/12/08 13:29:11;;;;;;;33.13;20.97;;;;;;;;;;4958864;28;20192;-79
2020/12/08 13:31:38;;;;;;;30.03;19.40;;;;;;;;;;4960056;28;20205;-79
2020/12/08 13:34:04;;;;;;;30.67;19.90;;;;;;;;;;4959317;28;20173;-79
2020/12/08 13:36:31;;;;;;;28.43;18.93;;;;;;;;;;4958338;29;20235;-79
2020/12/08 13:38:57;;;;;;;32.37;20.40;;;;;;;;;;4959548;28;20178;-79
2020/12/08 13:41:23;;;;;;;32.20;20.83;;;;;;;;;;4958119;28;20201;-80
2020/12/08 13:43:50;;;;;;;30.47;19.97;;;;;;;;;;4959845;28;20185;-79
2020/12/08 13:46:20;;;;;;;33.60;20.30;;;;;;;;;;4959549;29;20210;-79
2020/12/08 13:48:46;;;;;;;32.80;19.43;;;;;;;;;;4959762;28;20188;-80
2020/12/08 13:51:13;;;;;;;28.73;18.80;;;;;;;;;;4959855;28;20230;-80
2020/12/08 13:53:39;;;;;;;30.23;18.80;;;;;;;;;;4959464;28;20573;-79
2020/12/08 13:56:05;;;;;;;29.73;18.97;;;;;;;;;;4959005;28;20181;-79
2020/12/08 13:58:32;;;;;;;36.83;21.07;;;;;;;;;;4959623;28;20185;-80
2020/12/08 14:00:58;;;;;;;34.53;21.23;;;;;;;;;;4959306;28;20197;-81
2020/12/08 14:06:30;;;;;;;33.93;20.13;;;;;;;;;;4960188;29;20530;-79
2020/12/08 14:08:56;;;;;;;33.23;21.03;;;;;;;;;;4957868;29;20736;-81
2020/12/08 14:11:22;;;;;;;38.17;21.17;;;;;;;;;;4958684;28;20197;-81
2020/12/08 14:13:49;;;;;;;35.03;21.00;;;;;;;;;;4957020;29;20299;-81
2020/12/08 14:16:19;;;;;;;33.47;20.27;;;;;;;;;;4957993;28;20177;-79
2020/12/08 14:18:45;;;;;;;33.03;20.60;;;;;;;;;;4959417;29;20227;-79
2020/12/08 14:21:17;;;;;;;29.07;19.07;;;;;;;;;;4961251;28;20691;-78